createdAt,value
2019-03-23T00:04:33.485Z,96634.00
2019-03-23T00:10:06.969Z,96639.00
2019-03-23T00:15:36.680Z,96633.00
2019-03-23T00:21:07.722Z,96632.00
2019-03-23T00:26:37.179Z,96630.00
2019-03-23T00:32:06.872Z,96623.00
2019-03-23T00:37:36.809Z,96608.00
2019-03-23T00:43:06.514Z,96618.00
2019-03-23T00:48:35.932Z,96622.00
2019-03-23T00:54:05.375Z,96618.00
2019-03-23T00:59:34.895Z,96603.00
2019-03-23T01:05:05.878Z,96608.00
2019-03-23T01:10:35.357Z,96600.00
2019-03-23T01:16:04.833Z,96601.00
2019-03-23T01:21:34.175Z,96593.00
2019-03-23T01:27:03.595Z,96600.00
2019-03-23T01:32:32.918Z,96593.00
2019-03-23T01:38:02.432Z,96593.00
2019-03-23T01:43:31.841Z,96589.00
2019-03-23T01:49:01.380Z,96595.00
2019-03-23T01:54:30.766Z,96590.00
2019-03-23T02:00:00.416Z,96600.00
2019-03-23T02:05:29.912Z,96601.00
2019-03-23T02:11:04.360Z,96591.00
2019-03-23T02:16:33.749Z,96587.00
2019-03-23T02:22:03.223Z,96584.00
2019-03-23T02:27:32.871Z,96589.00
2019-03-23T02:33:02.253Z,96587.00
2019-03-23T02:38:31.950Z,96584.00
2019-03-23T02:44:01.545Z,96575.00
2019-03-23T02:49:30.993Z,96573.00
2019-03-23T02:55:00.534Z,96571.00
2019-03-23T03:00:30.029Z,96569.00
2019-03-23T03:05:59.544Z,96566.00
2019-03-23T03:11:28.974Z,96562.00
2019-03-23T03:16:58.484Z,96568.00
2019-03-23T03:22:28.046Z,96562.00
2019-03-23T03:27:57.565Z,96566.00
2019-03-23T03:33:27.103Z,96563.00
2019-03-23T03:39:02.736Z,96565.00
2019-03-23T03:44:32.193Z,96566.00
2019-03-23T03:50:01.739Z,96571.00
2019-03-23T03:55:31.302Z,96579.00
2019-03-23T04:01:01.629Z,96569.00
2019-03-23T04:06:31.179Z,96571.00
2019-03-23T04:12:03.992Z,96570.00
2019-03-23T04:17:33.808Z,96573.00
2019-03-23T04:23:05.083Z,96577.00
2019-03-23T04:28:34.406Z,96577.00
2019-03-23T04:34:03.744Z,96576.00
2019-03-23T04:39:33.195Z,96585.00
2019-03-23T04:45:02.521Z,96585.00
2019-03-23T04:50:32.009Z,96590.00
2019-03-23T04:56:01.345Z,96593.00
2019-03-23T05:01:30.917Z,96599.00
2019-03-23T05:07:00.442Z,96603.00
2019-03-23T05:12:29.918Z,96603.00
2019-03-23T05:17:59.361Z,96608.00
2019-03-23T05:23:28.907Z,96610.00
2019-03-23T05:28:58.383Z,96615.00
2019-03-23T05:34:27.920Z,96619.00
2019-03-23T05:39:57.364Z,96610.00
2019-03-23T05:45:26.915Z,96625.00
2019-03-23T05:50:56.472Z,96619.00
2019-03-23T05:56:26.129Z,96618.00
2019-03-23T06:01:57.984Z,96621.00
2019-03-23T06:07:27.641Z,96622.00
2019-03-23T06:12:57.225Z,96620.00
2019-03-23T06:18:27.788Z,96639.00
2019-03-23T06:23:57.348Z,96631.00
2019-03-23T06:29:26.775Z,96629.00
2019-03-23T06:34:56.313Z,96639.00
2019-03-23T06:40:25.969Z,96632.00
2019-03-23T06:45:55.399Z,96638.00
2019-03-23T06:51:24.932Z,96641.00
2019-03-23T06:56:54.558Z,96640.00
2019-03-23T07:02:24.218Z,96637.00
2019-03-23T07:07:53.717Z,96650.00
2019-03-23T07:13:23.328Z,96661.00
2019-03-23T07:18:52.872Z,96660.00
2019-03-23T07:24:23.201Z,96658.00
2019-03-23T07:29:52.658Z,96655.00
2019-03-23T07:35:22.141Z,96657.00
2019-03-23T07:40:51.697Z,96657.00
2019-03-23T07:46:21.187Z,96647.00
2019-03-23T07:51:50.819Z,96655.00
2019-03-23T07:57:21.149Z,96661.00
2019-03-23T08:02:50.694Z,96661.00
2019-03-23T08:08:20.016Z,96663.00
2019-03-23T08:13:49.529Z,96658.00
2019-03-23T08:19:19.074Z,96657.00
2019-03-23T08:24:49.091Z,96662.00
2019-03-23T08:30:19.296Z,96674.00
2019-03-23T08:35:49.664Z,96677.00
2019-03-23T08:41:19.458Z,96661.00
2019-03-23T08:46:49.031Z,96665.00
2019-03-23T08:52:18.557Z,96671.00
2019-03-23T08:57:47.930Z,96663.00
2019-03-23T09:03:17.287Z,96659.00
2019-03-23T09:08:46.708Z,96660.00
2019-03-23T09:14:16.237Z,96658.00
2019-03-23T09:19:45.831Z,96661.00
2019-03-23T09:25:15.348Z,96661.00
2019-03-23T09:30:44.817Z,96662.00
2019-03-23T09:36:14.440Z,96657.00
2019-03-23T09:41:43.968Z,96646.00
2019-03-23T09:47:13.596Z,96648.00
2019-03-23T09:52:43.164Z,96649.00
2019-03-23T09:58:13.853Z,96640.00
2019-03-23T10:03:43.757Z,96644.00
2019-03-23T10:09:13.111Z,96629.00
2019-03-23T10:14:42.743Z,96631.00
2019-03-23T10:20:13.153Z,96622.00
2019-03-23T10:25:42.668Z,96618.00
2019-03-23T10:31:12.312Z,96614.00
2019-03-23T10:36:42.134Z,96611.00
2019-03-23T10:42:11.841Z,96611.00
2019-03-23T10:47:41.623Z,96615.00
2019-03-23T10:53:11.273Z,96608.00
2019-03-23T10:58:40.840Z,96613.00
2019-03-23T11:04:10.738Z,96605.00
2019-03-23T11:09:40.206Z,96601.00
2019-03-23T11:15:11.485Z,96596.00
2019-03-23T11:20:41.129Z,96585.00
2019-03-23T11:26:11.824Z,96573.00
2019-03-23T11:31:44.960Z,96588.00
2019-03-23T11:37:14.530Z,96577.00
2019-03-23T11:42:50.012Z,96569.00
2019-03-23T11:48:15.496Z,96559.00
2019-03-23T11:53:45.555Z,96555.00
2019-03-23T11:59:15.089Z,96552.00
2019-03-23T12:04:44.644Z,96538.00
2019-03-23T12:10:14.818Z,96546.00
2019-03-23T12:15:44.591Z,96544.00
2019-03-23T12:21:14.218Z,96545.00
2019-03-23T12:26:43.503Z,96543.00
2019-03-23T12:32:13.340Z,96545.00
2019-03-23T12:37:42.898Z,96530.00
2019-03-23T12:43:15.033Z,96530.00
2019-03-23T12:48:45.606Z,96523.00
2019-03-23T12:54:17.117Z,96518.00
2019-03-23T12:59:47.933Z,96514.00
2019-03-23T13:05:17.670Z,96515.00
2019-03-23T13:10:47.198Z,96506.00
2019-03-23T13:16:16.837Z,96507.00
2019-03-23T13:21:46.365Z,96509.00
2019-03-23T13:27:15.852Z,96498.00
2019-03-23T13:32:45.392Z,96498.00
2019-03-23T13:38:16.092Z,96497.00
2019-03-23T13:43:45.807Z,96485.00
2019-03-23T13:49:15.364Z,96494.00
2019-03-23T13:54:45.388Z,96493.00
2019-03-23T14:00:17.501Z,96475.00
2019-03-23T14:05:46.932Z,96448.00
2019-03-23T14:11:16.563Z,96450.00
2019-03-23T14:16:46.249Z,96451.00
2019-03-23T14:22:16.139Z,96439.00
2019-03-23T14:27:59.579Z,96439.00
2019-03-23T14:33:29.046Z,96410.00
2019-03-23T14:38:58.480Z,96407.00
2019-03-23T14:44:35.344Z,96404.00
2019-03-23T14:50:07.257Z,96416.00
2019-03-23T14:55:37.563Z,96421.00
2019-03-23T15:01:08.711Z,96426.00
2019-03-23T15:06:38.477Z,96423.00
2019-03-23T15:12:14.920Z,96422.00
2019-03-23T15:17:48.422Z,96443.00
2019-03-23T15:23:10.655Z,96432.00
2019-03-23T15:28:40.415Z,96471.00
2019-03-23T15:34:13.854Z,96469.00
2019-03-23T15:39:43.414Z,96464.00
2019-03-23T15:45:12.998Z,96440.00
2019-03-23T15:50:42.509Z,96438.00
2019-03-23T15:56:12.065Z,96437.00
2019-03-23T16:01:42.545Z,96421.00
2019-03-23T16:07:11.934Z,96426.00
2019-03-23T16:12:42.397Z,96435.00
2019-03-23T16:18:11.840Z,96426.00
2019-03-23T16:23:41.295Z,96467.00
2019-03-23T16:29:10.686Z,96464.00
2019-03-23T16:34:40.038Z,96461.00
2019-03-23T16:40:11.085Z,96472.00
2019-03-23T16:45:42.172Z,96468.00
2019-03-23T16:51:11.646Z,96467.00
2019-03-23T16:56:41.117Z,96469.00
2019-03-23T17:02:11.408Z,96463.00
2019-03-23T17:07:41.348Z,96455.00
2019-03-23T17:13:10.765Z,96463.00
2019-03-23T17:18:40.205Z,96468.00
2019-03-23T17:24:10.869Z,96469.00
2019-03-23T17:29:40.510Z,96476.00
2019-03-23T17:35:10.059Z,96478.00
2019-03-23T17:40:44.384Z,96474.00
2019-03-23T17:46:13.735Z,96470.00
2019-03-23T17:51:43.250Z,96471.00
2019-03-23T17:57:13.120Z,96484.00
2019-03-23T18:02:42.397Z,96484.00
2019-03-23T18:08:11.818Z,96488.00
2019-03-23T18:13:41.435Z,96503.00
2019-03-23T18:19:10.779Z,96495.00
2019-03-23T18:24:40.339Z,96504.00
2019-03-23T18:30:41.893Z,96504.00
2019-03-23T18:36:14.405Z,96514.00
2019-03-23T18:41:43.867Z,96512.00
2019-03-23T18:47:13.282Z,96518.00
2019-03-23T18:52:43.045Z,96523.00
2019-03-23T18:58:12.862Z,96528.00
2019-03-23T19:03:42.472Z,96533.00
2019-03-23T19:09:11.947Z,96530.00
2019-03-23T19:14:42.370Z,96542.00
2019-03-23T19:20:11.787Z,96535.00
2019-03-23T19:25:41.162Z,96536.00
2019-03-23T19:31:10.582Z,96536.00
2019-03-23T19:36:40.009Z,96527.00
2019-03-23T19:42:09.574Z,96531.00
2019-03-23T19:47:39.054Z,96540.00
2019-03-23T19:53:08.532Z,96544.00
2019-03-23T19:58:38.002Z,96533.00
2019-03-23T20:04:07.602Z,96544.00
2019-03-23T20:09:37.067Z,96536.00
2019-03-23T20:15:09.405Z,96545.00
2019-03-23T20:20:38.912Z,96537.00
2019-03-23T20:26:08.409Z,96530.00
2019-03-23T20:31:37.884Z,96543.00
2019-03-23T20:37:08.482Z,96541.00
2019-03-23T20:42:38.404Z,96538.00
2019-03-23T20:48:08.174Z,96538.00
2019-03-23T20:53:38.073Z,96536.00
2019-03-23T20:59:07.842Z,96536.00
2019-03-23T21:04:37.851Z,96529.00
2019-03-23T21:10:07.658Z,96523.00
2019-03-23T21:15:37.114Z,96526.00
2019-03-23T21:21:07.014Z,96521.00
2019-03-23T21:26:36.475Z,96518.00
2019-03-23T21:32:06.070Z,96518.00
2019-03-23T21:37:35.641Z,96505.00
2019-03-23T21:43:05.341Z,96502.00
2019-03-23T21:48:35.050Z,96500.00
2019-03-23T21:54:07.847Z,96502.00
2019-03-23T21:59:38.012Z,96498.00
2019-03-23T22:05:09.230Z,96499.00
2019-03-23T22:10:38.880Z,96494.00
2019-03-23T22:16:08.407Z,96492.00
2019-03-23T22:21:37.872Z,96493.00
2019-03-23T22:27:08.312Z,96492.00
2019-03-23T22:32:37.697Z,96478.00
2019-03-23T22:38:07.284Z,96476.00
2019-03-23T22:43:36.888Z,96477.00
2019-03-23T22:49:06.356Z,96469.00
2019-03-23T22:54:35.950Z,96464.00
2019-03-23T23:00:17.142Z,96459.00
2019-03-23T23:05:46.618Z,96456.00
2019-03-23T23:11:16.039Z,96455.00
2019-03-23T23:16:45.413Z,96444.00
2019-03-23T23:22:15.760Z,96436.00
2019-03-23T23:27:45.185Z,96434.00
2019-03-23T23:33:14.507Z,96432.00
2019-03-23T23:38:43.905Z,96421.00
2019-03-23T23:44:13.280Z,96424.00
2019-03-23T23:49:42.816Z,96417.00
2019-03-23T23:55:12.286Z,96409.00
